Time;durP1;ratioP1;P1;durP2;ratioP2;P2;SDS_P1;SDS_P2;PMS_P1;PMS_P2;Temp;Humidity;BMP_temperature;BMP_pressure;BME280_temperature;BME280_humidity;BME280_pressure;Samples;Min_cycle;Max_cycle;Signal;HPM_P1;HPM_P2
2023/03/13 00:01:02;;;;;;;15.75;5.47;;;8.50;99.90;;;;;;2091064;28;20044;-78
2023/03/13 00:02:03;;;;;;;14.85;5.65;;;8.60;99.90;;;;;;2090703;28;20039;-77
2023/03/13 00:03:03;;;;;;;18.38;5.70;;;8.50;99.90;;;;;;2092017;28;20024;-80
2023/03/13 00:04:04;;;;;;;19.15;5.93;;;8.50;99.90;;;;;;2081451;28;20082;-78
2023/03/13 00:05:05;;;;;;;18.42;6.13;;;8.50;99.90;;;;;;2085017;28;20035;-79
2023/03/13 00:06:05;;;;;;;17.23;6.22;;;8.50;99.90;;;;;;2077694;28;20081;-78
2023/03/13 00:07:06;;;;;;;14.80;5.82;;;8.50;99.90;;;;;;2080886;28;20033;-77
2023/03/13 00:08:06;;;;;;;18.10;6.10;;;8.50;99.90;;;;;;2079919;28;20034;-79
2023/03/13 00:09:09;;;;;;;14.93;5.95;;;8.50;99.90;;;;;;2065396;28;20030;-76
2023/03/13 00:10:10;;;;;;;18.60;6.30;;;8.50;99.90;;;;;;2086998;28;20123;-73
2023/03/13 00:11:14;;;;;;;16.35;6.03;;;8.50;99.90;;;;;;2087899;28;20028;-71
2023/03/13 00:12:14;;;;;;;20.58;6.43;;;8.50;99.90;;;;;;2090231;28;20051;-71
2023/03/13 00:13:15;;;;;;;20.67;6.10;;;8.50;99.90;;;;;;2082018;28;20051;-78
2023/03/13 00:14:15;;;;;;;20.20;5.90;;;8.50;99.90;;;;;;2088560;28;20039;-78
2023/03/13 00:15:16;;;;;;;14.15;5.78;;;8.50;99.90;;;;;;2078243;28;20184;-78
2023/03/13 00:16:16;;;;;;;16.88;5.68;;;8.50;99.90;;;;;;2086586;28;20546;-78
2023/03/13 00:17:17;;;;;;;15.60;6.35;;;8.50;99.90;;;;;;2086409;28;20534;-79
2023/03/13 00:18:18;;;;;;;18.38;5.85;;;8.50;99.90;;;;;;2089212;28;20041;-80
2023/03/13 00:19:18;;;;;;;22.00;6.30;;;8.50;99.90;;;;;;2083387;28;20029;-79
2023/03/13 00:20:19;;;;;;;18.73;6.05;;;8.40;99.90;;;;;;2086453;28;20067;-78
2023/03/13 00:21:21;;;;;;;20.70;5.95;;;8.40;99.90;;;;;;2084334;28;20037;-79
2023/03/13 00:22:22;;;;;;;22.13;6.22;;;8.40;99.90;;;;;;2089171;28;20032;-79
2023/03/13 00:23:22;;;;;;;18.92;5.95;;;8.40;99.90;;;;;;2086660;28;20438;-79
2023/03/13 00:24:23;;;;;;;17.58;6.30;;;8.40;99.90;;;;;;2086503;28;20586;-79
2023/03/13 00:25:24;;;;;;;18.50;5.60;;;8.40;99.90;;;;;;2085685;28;20523;-79
2023/03/13 00:26:26;;;;;;;17.92;6.32;;;8.40;99.90;;;;;;2077443;28;20057;-79
2023/03/13 00:27:27;;;;;;;17.65;6.10;;;8.40;99.90;;;;;;2088535;28;20052;-79
2023/03/13 00:28:30;;;;;;;17.80;6.00;;;8.40;99.90;;;;;;2087761;28;20025;-81
2023/03/13 00:29:32;;;;;;;18.98;6.05;;;8.40;99.90;;;;;;2087160;28;20032;-79
2023/03/13 00:30:33;;;;;;;17.42;5.68;;;8.40;99.90;;;;;;2087477;28;20527;-78
2023/03/13 00:31:33;;;;;;;16.63;5.75;;;8.40;99.90;;;;;;2084954;28;20029;-80
2023/03/13 00:32:44;;;;;;;18.13;5.68;;;8.40;99.90;;;;;;2081429;28;20052;-79
2023/03/13 00:33:48;;;;;;;18.17;5.35;;;8.40;99.90;;;;;;2084701;28;20368;-80
2023/03/13 00:34:48;;;;;;;18.40;5.60;;;8.40;99.90;;;;;;2075419;28;20415;-79
2023/03/13 00:35:49;;;;;;;21.02;6.18;;;8.40;99.90;;;;;;2075172;28;20033;-80
2023/03/13 00:36:49;;;;;;;18.13;6.15;;;8.50;99.90;;;;;;2073088;28;20029;-79
2023/03/13 00:37:51;;;;;;;18.10;6.18;;;8.40;99.90;;;;;;2079887;28;20041;-79
2023/03/13 00:38:53;;;;;;;14.93;5.32;;;8.50;99.90;;;;;;2087180;28;20036;-79
2023/03/13 00:39:53;;;;;;;19.58;6.13;;;8.50;99.90;;;;;;2086888;28;20031;-80
2023/03/13 00:41:11;;;;;;;20.00;5.95;;;8.50;99.90;;;;;;2077658;28;20029;-80
2023/03/13 00:42:11;;;;;;;18.13;6.00;;;8.50;99.90;;;;;;2086170;28;20136;-79
2023/03/13 00:43:12;;;;;;;20.30;5.90;;;8.50;99.90;;;;;;2078693;28;20040;-79
2023/03/13 00:44:13;;;;;;;15.95;5.47;;;8.50;99.90;;;;;;2078724;28;20036;-78
2023/03/13 00:45:14;;;;;;;21.48;5.47;;;8.50;99.90;;;;;;2074880;28;20465;-79
2023/03/13 00:46:17;;;;;;;17.13;5.80;;;8.50;99.90;;;;;;2061034;28;20494;-79
2023/03/13 00:47:18;;;;;;;20.70;5.57;;;8.50;99.90;;;;;;2077560;28;20550;-79
2023/03/13 00:48:18;;;;;;;18.00;6.10;;;8.50;99.90;;;;;;2086626;28;20036;-78
2023/03/13 00:49:19;;;;;;;18.42;5.57;;;8.50;99.90;;;;;;2086342;28;20036;-80
2023/03/13 00:50:19;;;;;;;15.82;5.28;;;8.50;99.90;;;;;;2076569;28;20041;-80
2023/03/13 00:51:22;;;;;;;18.02;5.78;;;8.60;99.90;;;;;;2078583;28;20025;-79
2023/03/13 00:52:23;;;;;;;20.65;5.60;;;8.60;99.90;;;;;;2079077;28;20083;-81
2023/03/13 00:53:24;;;;;;;17.20;5.45;;;8.60;99.90;;;;;;2079979;28;20028;-79
2023/03/13 00:54:25;;;;;;;20.95;5.80;;;8.60;99.90;;;;;;2078382;28;20218;-80
2023/03/13 00:55:25;;;;;;;18.40;5.85;;;8.60;99.90;;;;;;2087616;28;20040;-79
2023/03/13 00:56:26;;;;;;;18.05;5.88;;;8.60;99.90;;;;;;2085630;28;20041;-79
2023/03/13 00:57:27;;;;;;;19.77;5.70;;;8.70;99.90;;;;;;2069413;28;20132;-79
2023/03/13 00:58:31;;;;;;;18.27;5.50;;;8.70;99.90;;;;;;2078247;28;20033;-80
2023/03/13 00:59:32;;;;;;;21.55;6.60;;;8.70;99.90;;;;;;2080150;28;20630;-78
2023/03/13 01:00:32;;;;;;;17.83;5.72;;;8.70;99.90;;;;;;2078443;28;20702;-80
2023/03/13 01:01:35;;;;;;;21.65;5.82;;;8.70;99.90;;;;;;2078778;28;20090;-81
2023/03/13 01:02:41;;;;;;;17.35;5.32;;;8.60;99.90;;;;;;2067541;28;20188;-80
2023/03/13 01:03:43;;;;;;;16.48;5.32;;;8.60;99.90;;;;;;2069043;28;20026;-81
2023/03/13 01:04:43;;;;;;;21.60;5.90;;;8.60;99.90;;;;;;2085986;28;20458;-79
2023/03/13 01:05:44;;;;;;;22.63;6.03;;;8.60;99.90;;;;;;2079946;28;20484;-80
2023/03/13 01:06:45;;;;;;;17.73;5.30;;;8.70;99.90;;;;;;2083974;28;20048;-78
2023/03/13 01:07:45;;;;;;;18.25;5.35;;;8.70;99.90;;;;;;2079786;28;20038;-79
2023/03/13 01:08:47;;;;;;;17.75;5.55;;;8.70;99.90;;;;;;2080803;28;20025;-76
2023/03/13 01:09:47;;;;;;;17.88;5.53;;;8.70;99.90;;;;;;2072488;28;20036;-78
2023/03/13 01:10:48;;;;;;;19.58;5.60;;;8.70;99.90;;;;;;2083921;28;20063;-79
2023/03/13 01:11:48;;;;;;;16.42;5.15;;;8.70;99.90;;;;;;2078626;28;20033;-79
2023/03/13 01:12:49;;;;;;;19.70;5.18;;;8.70;99.90;;;;;;2078674;28;20048;-79
2023/03/13 01:13:53;;;;;;;22.42;5.93;;;8.70;99.90;;;;;;2083470;28;20124;-78
2023/03/13 01:14:54;;;;;;;23.35;5.18;;;8.70;99.90;;;;;;2088047;28;20038;-78
2023/03/13 01:15:56;;;;;;;18.65;5.38;;;8.70;99.90;;;;;;2085458;28;20021;-79
2023/03/13 01:16:56;;;;;;;20.05;5.43;;;8.70;99.90;;;;;;2077138;28;20100;-71
2023/03/13 01:17:58;;;;;;;20.30;5.38;;;8.70;99.90;;;;;;2085197;28;20175;-71
2023/03/13 01:19:01;;;;;;;19.42;5.60;;;8.80;99.90;;;;;;2088635;28;20453;-73
2023/03/13 01:20:04;;;;;;;19.77;5.32;;;8.80;99.90;;;;;;2087328;28;20024;-72
2023/03/13 01:21:05;;;;;;;20.25;5.20;;;8.80;99.90;;;;;;2076360;28;20021;-72
2023/03/13 01:22:10;;;;;;;19.00;5.47;;;8.70;99.90;;;;;;2083997;28;20044;-72
2023/03/13 01:23:11;;;;;;;21.00;5.22;;;8.80;99.90;;;;;;2083930;28;20127;-73
2023/03/13 01:24:11;;;;;;;18.38;5.07;;;8.80;99.90;;;;;;2087692;28;20301;-72
2023/03/13 01:25:12;;;;;;;18.13;4.95;;;8.80;99.90;;;;;;2085626;28;20024;-73
2023/03/13 01:26:13;;;;;;;17.63;4.80;;;8.80;99.90;;;;;;2076738;28;20041;-72
2023/03/13 01:27:13;;;;;;;19.83;5.32;;;8.80;99.90;;;;;;2085070;28;20288;-72
2023/03/13 01:28:16;;;;;;;15.52;5.07;;;8.80;99.90;;;;;;2080332;28;20041;-71
2023/03/13 01:29:16;;;;;;;16.15;4.90;;;8.80;99.90;;;;;;2079948;28;20486;-73
2023/03/13 01:30:17;;;;;;;20.85;5.35;;;8.80;99.90;;;;;;2076555;28;20187;-73
2023/03/13 01:31:23;;;;;;;19.15;5.00;;;8.80;99.90;;;;;;2084148;28;20107;-72
2023/03/13 01:32:24;;;;;;;15.00;4.90;;;8.80;99.90;;;;;;2086134;28;20513;-72
2023/03/13 01:33:24;;;;;;;17.05;4.90;;;8.80;99.90;;;;;;2086048;28;20115;-72
2023/03/13 01:34:25;;;;;;;18.48;5.15;;;8.90;99.90;;;;;;2087569;28;20031;-71
2023/03/13 01:35:26;;;;;;;17.30;5.05;;;8.90;99.90;;;;;;2074094;28;20681;-72
2023/03/13 01:36:27;;;;;;;21.33;4.80;;;8.90;99.90;;;;;;2076840;28;20036;-72
2023/03/13 01:37:28;;;;;;;18.30;5.10;;;8.90;99.90;;;;;;2072445;28;20505;-72
2023/03/13 01:38:29;;;;;;;18.38;5.25;;;8.90;99.90;;;;;;2083621;28;20127;-72
2023/03/13 01:39:29;;;;;;;21.30;5.50;;;8.90;99.90;;;;;;2084905;28;20033;-72
2023/03/13 01:40:30;;;;;;;20.00;5.60;;;8.90;99.90;;;;;;2079520;28;20099;-72
2023/03/13 01:41:30;;;;;;;19.35;5.80;;;8.90;99.90;;;;;;2075258;28;20108;-72
2023/03/13 01:42:52;;;;;;;23.48;5.57;;;8.90;99.90;;;;;;2085491;28;20291;-73
2023/03/13 01:43:54;;;;;;;21.65;5.18;;;9.00;99.90;;;;;;2086700;28;20032;-72
2023/03/13 01:44:56;;;;;;;18.70;4.75;;;8.90;99.90;;;;;;2085264;28;20032;-72
2023/03/13 01:46:15;;;;;;;22.95;5.40;;;8.90;99.90;;;;;;2085772;28;20099;-73
2023/03/13 01:47:38;;;;;;;20.63;5.30;;;8.90;99.90;;;;;;2067996;28;20052;-72
2023/03/13 01:48:56;;;;;;;20.20;4.93;;;8.90;99.90;;;;;;2085428;28;20123;-72
2023/03/13 01:49:57;;;;;;;18.35;4.82;;;8.90;99.90;;;;;;2082565;28;20541;-74
2023/03/13 01:51:35;;;;;;;18.10;4.88;;;8.90;99.90;;;;;;2084508;28;20131;-71
2023/03/13 01:52:36;;;;;;;22.25;5.10;;;8.90;99.90;;;;;;2082149;28;20020;-73
2023/03/13 01:53:46;;;;;;;17.48;4.88;;;8.90;99.90;;;;;;2079581;28;20028;-72
2023/03/13 01:54:55;;;;;;;20.98;5.20;;;8.80;99.90;;;;;;2082611;28;20130;-73
2023/03/13 01:55:59;;;;;;;22.80;4.80;;;8.80;99.90;;;;;;2083547;28;20020;-71
2023/03/13 01:57:08;;;;;;;16.83;5.20;;;8.80;99.90;;;;;;2069166;28;20021;-71
2023/03/13 01:58:10;;;;;;;19.48;4.90;;;8.80;99.90;;;;;;2077776;28;20063;-72
2023/03/13 01:59:14;;;;;;;17.30;4.57;;;8.80;99.90;;;;;;2076547;28;20040;-72
2023/03/13 02:00:21;;;;;;;18.73;4.95;;;8.80;99.90;;;;;;2076440;28;20036;-73
2023/03/13 02:01:22;;;;;;;21.27;5.10;;;8.80;99.90;;;;;;2076978;28;20084;-71
2023/03/13 02:02:23;;;;;;;20.63;4.68;;;8.80;99.90;;;;;;2087322;28;20513;-72
2023/03/13 02:03:25;;;;;;;19.20;4.95;;;8.80;99.90;;;;;;2079204;28;20025;-72
2023/03/13 02:04:30;;;;;;;20.35;5.03;;;8.80;99.90;;;;;;2085636;28;20103;-71
2023/03/13 02:05:31;;;;;;;21.05;4.80;;;8.80;99.90;;;;;;2083371;28;20306;-71
2023/03/13 02:06:35;;;;;;;21.40;4.72;;;8.80;99.90;;;;;;2069595;28;20159;-73
2023/03/13 02:07:55;;;;;;;18.88;4.70;;;8.80;99.90;;;;;;2076556;28;20033;-71
2023/03/13 02:09:01;;;;;;;17.75;4.13;;;8.70;99.90;;;;;;2073612;28;20040;-72
2023/03/13 02:10:02;;;;;;;18.95;4.75;;;8.70;99.90;;;;;;2075405;28;20026;-72
2023/03/13 02:11:21;;;;;;;21.15;4.78;;;8.70;99.90;;;;;;2076083;28;20034;-72
2023/03/13 02:12:34;;;;;;;20.75;5.00;;;8.70;99.90;;;;;;2078039;28;20030;-72
2023/03/13 02:13:35;;;;;;;15.63;4.40;;;8.60;99.90;;;;;;2078628;28;20026;-72
2023/03/13 02:14:40;;;;;;;19.90;4.65;;;8.60;99.90;;;;;;2077437;28;20488;-72
2023/03/13 02:15:40;;;;;;;17.63;4.40;;;8.60;99.90;;;;;;2084583;28;20021;-72
2023/03/13 02:16:46;;;;;;;20.88;4.90;;;8.60;99.90;;;;;;2078034;28;20514;-72
2023/03/13 02:17:48;;;;;;;21.42;5.00;;;8.60;99.90;;;;;;2085985;28;20055;-71
2023/03/13 02:18:49;;;;;;;24.73;4.97;;;8.60;99.90;;;;;;2082753;28;20032;-72
2023/03/13 02:19:51;;;;;;;19.20;4.57;;;8.60;99.90;;;;;;2087030;28;20063;-71
2023/03/13 02:20:59;;;;;;;19.20;5.03;;;8.70;99.90;;;;;;2073203;28;20385;-71
2023/03/13 02:22:05;;;;;;;22.05;5.35;;;8.70;99.90;;;;;;2071716;28;20236;-71
2023/03/13 02:23:26;;;;;;;21.08;4.93;;;8.70;99.90;;;;;;2076499;28;20491;-71
2023/03/13 02:24:34;;;;;;;;;;;8.70;99.90;;;;;;2082873;28;20048;-73
2023/03/13 02:25:47;;;;;;;20.00;4.60;;;8.70;99.90;;;;;;2087421;28;19916;-73
2023/03/13 02:26:51;;;;;;;19.95;4.93;;;8.70;99.90;;;;;;2076951;28;20438;-72
2023/03/13 02:27:54;;;;;;;18.58;4.50;;;8.70;99.90;;;;;;2070878;28;20116;-72
2023/03/13 02:28:55;;;;;;;22.33;4.97;;;8.60;99.90;;;;;;2069094;28;20039;-72
2023/03/13 02:29:57;;;;;;;19.92;4.75;;;8.60;99.90;;;;;;2076654;28;20058;-72
2023/03/13 02:30:58;;;;;;;20.15;5.10;;;8.60;99.90;;;;;;2085062;28;20028;-73
2023/03/13 02:31:59;;;;;;;21.83;5.10;;;8.60;99.90;;;;;;2085201;28;20175;-74
2023/03/13 02:33:02;;;;;;;18.13;4.95;;;8.60;99.90;;;;;;2087655;28;20029;-73
2023/03/13 02:34:03;;;;;;;15.90;4.53;;;8.60;99.90;;;;;;2074973;28;20029;-74
2023/03/13 02:35:08;;;;;;;21.23;4.88;;;8.50;99.90;;;;;;2077884;28;20487;-73
2023/03/13 02:36:09;;;;;;;16.58;4.57;;;8.50;99.90;;;;;;2074455;28;20036;-72
2023/03/13 02:37:12;;;;;;;22.95;4.82;;;8.50;99.90;;;;;;2075625;28;20033;-72
2023/03/13 02:38:20;;;;;;;18.52;4.60;;;8.50;99.90;;;;;;2081501;28;20022;-71
2023/03/13 02:39:23;;;;;;;20.85;5.03;;;8.60;99.90;;;;;;2076495;28;20032;-71
2023/03/13 02:40:28;;;;;;;18.45;4.75;;;8.60;99.90;;;;;;2082050;28;20017;-72
2023/03/13 02:41:31;;;;;;;24.77;5.05;;;8.60;99.90;;;;;;2085047;28;20290;-72
2023/03/13 02:42:33;;;;;;;18.92;4.85;;;8.60;99.90;;;;;;2076850;28;20409;-72
2023/03/13 02:43:36;;;;;;;20.08;4.80;;;8.60;99.90;;;;;;2077320;28;20319;-72
2023/03/13 02:44:43;;;;;;;17.73;5.38;;;8.60;99.90;;;;;;2079969;28;20056;-73
2023/03/13 02:46:04;;;;;;;15.05;4.72;;;8.60;99.90;;;;;;2069084;28;20014;-73
2023/03/13 02:47:08;;;;;;;16.55;5.15;;;8.60;99.90;;;;;;2060191;28;20030;-72
2023/03/13 02:48:09;;;;;;;20.55;4.50;;;8.60;99.90;;;;;;2066727;28;20126;-72
2023/03/13 02:49:22;;;;;;;19.98;4.63;;;8.60;99.90;;;;;;2085472;28;20241;-72
2023/03/13 02:50:23;;;;;;;17.52;4.57;;;8.70;99.90;;;;;;2086207;28;20025;-72
2023/03/13 02:51:34;;;;;;;15.52;4.20;;;8.70;99.90;;;;;;2078215;28;20036;-72
2023/03/13 02:52:39;;;;;;;20.88;4.70;;;8.70;99.90;;;;;;2072399;28;20097;-71
2023/03/13 02:53:42;;;;;;;20.83;5.30;;;8.70;99.90;;;;;;2076116;28;20033;-70
2023/03/13 02:54:46;;;;;;;16.38;4.75;;;8.70;99.90;;;;;;2089234;28;20032;-74
2023/03/13 02:55:46;;;;;;;19.23;5.10;;;8.70;99.90;;;;;;2084449;28;20026;-73
2023/03/13 02:56:50;;;;;;;17.65;4.85;;;8.70;99.90;;;;;;2077879;28;20617;-73
2023/03/13 02:57:51;;;;;;;21.00;4.70;;;8.70;99.90;;;;;;2079599;28;20131;-73
2023/03/13 02:58:52;;;;;;;20.55;5.38;;;8.70;99.90;;;;;;2087302;28;20025;-72
2023/03/13 02:59:57;;;;;;;21.23;4.88;;;8.70;99.90;;;;;;2075259;28;20160;-73
2023/03/13 03:01:06;;;;;;;21.27;4.63;;;8.70;99.90;;;;;;2073365;28;20025;-73
2023/03/13 03:02:08;;;;;;;17.52;4.50;;;8.70;99.90;;;;;;2077691;28;20040;-73
2023/03/13 03:03:10;;;;;;;19.83;4.72;;;8.70;99.90;;;;;;2079179;28;20337;-71
2023/03/13 03:04:11;;;;;;;17.67;4.68;;;8.70;99.90;;;;;;2088669;28;20523;-72
2023/03/13 03:05:12;;;;;;;21.50;4.78;;;8.70;99.90;;;;;;2086196;28;20020;-72
2023/03/13 03:06:13;;;;;;;22.40;4.93;;;8.70;99.90;;;;;;2078738;28;20409;-72
2023/03/13 03:07:14;;;;;;;21.48;4.90;;;8.70;99.90;;;;;;2069642;28;20042;-71
2023/03/13 03:08:15;;;;;;;19.27;4.65;;;8.70;99.90;;;;;;2069629;28;20125;-72
2023/03/13 03:09:20;;;;;;;16.58;4.47;;;8.70;99.90;;;;;;2068904;28;20092;-73
2023/03/13 03:10:20;;;;;;;16.88;4.72;;;8.70;99.90;;;;;;2071828;28;20028;-73
2023/03/13 03:11:21;;;;;;;21.95;5.00;;;8.70;99.90;;;;;;2079542;28;20035;-72
2023/03/13 03:12:27;;;;;;;20.92;5.20;;;8.70;99.90;;;;;;2087558;28;20502;-72
2023/03/13 03:13:27;;;;;;;16.75;4.95;;;8.70;99.90;;;;;;2081288;28;20036;-72
2023/03/13 03:14:28;;;;;;;19.02;4.90;;;8.70;99.90;;;;;;2070058;28;20021;-73
2023/03/13 03:15:29;;;;;;;16.48;4.97;;;8.80;99.90;;;;;;2070128;28;20472;-72
2023/03/13 03:16:30;;;;;;;21.00;4.63;;;8.80;99.90;;;;;;2078287;28;20030;-72
2023/03/13 03:17:31;;;;;;;20.13;5.30;;;8.70;99.90;;;;;;2093141;28;20106;-73
2023/03/13 03:18:31;;;;;;;20.38;5.05;;;8.80;99.90;;;;;;2079733;28;20140;-73
2023/03/13 03:19:32;;;;;;;19.33;4.82;;;8.80;99.90;;;;;;2069208;28;20120;-72
2023/03/13 03:20:34;;;;;;;17.80;4.57;;;8.80;99.90;;;;;;2078019;28;20381;-72
2023/03/13 03:21:34;;;;;;;17.40;4.70;;;8.70;99.90;;;;;;2090758;28;20032;-72
2023/03/13 03:22:37;;;;;;;17.40;4.68;;;8.70;99.90;;;;;;2082856;28;20033;-72
2023/03/13 03:23:37;;;;;;;22.10;4.82;;;8.80;99.90;;;;;;2092846;28;20028;-72
2023/03/13 03:24:38;;;;;;;21.27;5.15;;;8.80;99.90;;;;;;2090760;28;20406;-72
2023/03/13 03:25:39;;;;;;;20.35;4.82;;;8.70;99.90;;;;;;2090825;28;20127;-72
2023/03/13 03:26:40;;;;;;;20.23;4.85;;;8.70;99.90;;;;;;2090922;28;20066;-72
2023/03/13 03:27:46;;;;;;;20.15;4.95;;;8.70;99.90;;;;;;2077713;28;20535;-73
2023/03/13 03:28:47;;;;;;;19.27;4.57;;;8.70;99.90;;;;;;2083497;28;20104;-72
2023/03/13 03:29:48;;;;;;;18.77;4.47;;;8.70;99.90;;;;;;2078819;28;20028;-72
2023/03/13 03:30:50;;;;;;;19.75;4.30;;;8.70;99.90;;;;;;2081615;28;20577;-72
2023/03/13 03:31:50;;;;;;;19.65;5.22;;;8.70;99.90;;;;;;2077087;28;20108;-71
2023/03/13 03:32:51;;;;;;;18.63;4.68;;;8.70;99.90;;;;;;2084578;28;20462;-71
2023/03/13 03:33:51;;;;;;;19.90;4.65;;;8.70;99.90;;;;;;2082526;28;20625;-72
2023/03/13 03:34:53;;;;;;;18.85;4.68;;;8.70;99.90;;;;;;2090893;28;20515;-72
2023/03/13 03:36:00;;;;;;;22.05;4.72;;;8.70;99.90;;;;;;2090891;28;20035;-71
2023/03/13 03:37:00;;;;;;;24.30;5.40;;;8.70;99.90;;;;;;2090944;28;20081;-71
2023/03/13 03:38:02;;;;;;;20.30;4.78;;;8.60;99.90;;;;;;2082642;28;20028;-74
2023/03/13 03:39:04;;;;;;;21.02;4.63;;;8.60;99.90;;;;;;2072236;28;20044;-71
2023/03/13 03:40:05;;;;;;;19.58;4.60;;;8.60;99.90;;;;;;2082555;28;20028;-71
2023/03/13 03:41:07;;;;;;;20.67;4.72;;;8.60;99.90;;;;;;2077836;28;20424;-72
2023/03/13 03:42:08;;;;;;;17.88;4.32;;;8.60;99.90;;;;;;2077640;28;20034;-72
2023/03/13 03:43:09;;;;;;;18.83;4.72;;;8.60;99.90;;;;;;2082417;28;20227;-72
2023/03/13 03:44:10;;;;;;;21.23;4.28;;;8.60;99.90;;;;;;2076258;28;20271;-72
2023/03/13 03:45:22;;;;;;;19.20;4.28;;;8.60;99.90;;;;;;2084652;28;20136;-72
2023/03/13 03:46:23;;;;;;;18.42;4.40;;;8.60;99.90;;;;;;2072796;28;20029;-72
2023/03/13 03:47:24;;;;;;;20.30;4.53;;;8.60;99.90;;;;;;2080702;28;20047;-72
2023/03/13 03:48:25;;;;;;;22.63;4.82;;;8.50;99.90;;;;;;2082343;28;20025;-72
2023/03/13 03:49:25;;;;;;;16.52;4.13;;;8.50;99.90;;;;;;2079476;28;20100;-73
2023/03/13 03:50:27;;;;;;;23.23;5.05;;;8.60;99.90;;;;;;2082498;28;20055;-72
2023/03/13 03:51:32;;;;;;;22.83;4.70;;;8.60;99.90;;;;;;2089495;28;20024;-73
2023/03/13 03:52:33;;;;;;;19.05;4.47;;;8.50;99.90;;;;;;2090413;28;20078;-72
2023/03/13 03:53:33;;;;;;;19.17;4.60;;;8.50;99.90;;;;;;2080757;28;20036;-73
2023/03/13 03:54:34;;;;;;;19.77;4.47;;;8.50;99.90;;;;;;2090724;28;20502;-73
2023/03/13 03:55:35;;;;;;;16.92;4.18;;;8.50;99.90;;;;;;2088311;28;20420;-73
2023/03/13 03:56:35;;;;;;;23.90;4.82;;;8.50;99.90;;;;;;2079157;28;20520;-71
2023/03/13 03:57:36;;;;;;;18.17;4.80;;;8.50;99.90;;;;;;2088576;28;20112;-73
2023/03/13 03:58:37;;;;;;;17.75;4.50;;;8.50;99.90;;;;;;2085948;28;20032;-72
2023/03/13 03:59:47;;;;;;;17.38;4.50;;;8.50;99.90;;;;;;2074296;28;20022;-73
2023/03/13 04:00:48;;;;;;;20.00;4.50;;;8.50;99.90;;;;;;2082037;28;20087;-73
2023/03/13 04:01:49;;;;;;;21.45;4.20;;;8.50;99.90;;;;;;2084422;28;20480;-73
2023/03/13 04:02:57;;;;;;;21.85;4.85;;;8.50;99.90;;;;;;2074992;28;20088;-72
2023/03/13 04:03:58;;;;;;;22.95;5.05;;;8.50;99.90;;;;;;2082107;28;20044;-72
2023/03/13 04:04:58;;;;;;;17.77;5.10;;;8.50;99.90;;;;;;2085595;28;20066;-72
2023/03/13 04:06:06;;;;;;;17.40;4.70;;;8.50;99.90;;;;;;2082484;28;20055;-72
2023/03/13 04:07:06;;;;;;;19.13;4.38;;;8.50;99.90;;;;;;2073912;28;20346;-72
2023/03/13 04:08:08;;;;;;;19.58;4.15;;;8.50;99.90;;;;;;2073739;28;20503;-72
2023/03/13 04:09:09;;;;;;;22.30;4.82;;;8.50;99.90;;;;;;2083263;28;20029;-72
2023/03/13 04:10:11;;;;;;;19.83;4.57;;;8.50;99.90;;;;;;2073426;28;20310;-72
2023/03/13 04:11:17;;;;;;;17.40;4.47;;;8.50;99.90;;;;;;2077008;28;20138;-72
2023/03/13 04:12:22;;;;;;;14.23;4.00;;;8.50;99.90;;;;;;2075500;28;20470;-72
2023/03/13 04:13:26;;;;;;;18.55;4.70;;;8.40;99.90;;;;;;2073583;28;20029;-72
2023/03/13 04:14:27;;;;;;;14.60;3.88;;;8.40;99.90;;;;;;2080308;28;20033;-73
2023/03/13 04:15:28;;;;;;;17.13;4.07;;;8.40;99.90;;;;;;2074110;28;20049;-72
2023/03/13 04:16:29;;;;;;;16.77;4.57;;;8.40;99.90;;;;;;2084424;28;20254;-73
2023/03/13 04:17:30;;;;;;;15.25;3.78;;;8.40;99.90;;;;;;2077526;28;20037;-73
2023/03/13 04:18:30;;;;;;;14.75;4.35;;;8.40;99.90;;;;;;2077371;28;20328;-73
2023/03/13 04:19:31;;;;;;;19.35;4.20;;;8.40;99.90;;;;;;2081894;28;20331;-72
2023/03/13 04:20:32;;;;;;;18.02;4.45;;;8.40;99.90;;;;;;2088139;28;20104;-72
2023/03/13 04:21:33;;;;;;;14.45;4.00;;;8.40;99.90;;;;;;2082052;28;20043;-72
2023/03/13 04:22:38;;;;;;;19.40;4.47;;;8.40;99.90;;;;;;2082466;28;20021;-72
2023/03/13 04:23:38;;;;;;;20.05;4.38;;;8.40;99.90;;;;;;2090173;28;20258;-72
2023/03/13 04:24:39;;;;;;;18.20;4.10;;;8.40;99.90;;;;;;2093086;28;20058;-72
2023/03/13 04:25:39;;;;;;;18.88;4.70;;;8.40;99.90;;;;;;2089865;28;20513;-73
2023/03/13 04:26:43;;;;;;;15.60;4.60;;;8.40;99.90;;;;;;2077141;28;20026;-71
2023/03/13 04:27:44;;;;;;;17.35;4.28;;;8.40;99.90;;;;;;2082227;28;20598;-72
2023/03/13 04:28:45;;;;;;;23.63;4.90;;;8.40;99.90;;;;;;2090422;28;20027;-72
2023/03/13 04:29:50;;;;;;;18.88;4.47;;;8.40;99.90;;;;;;2089819;28;20237;-71
2023/03/13 04:31:02;;;;;;;20.65;4.53;;;8.40;99.90;;;;;;2083444;28;20029;-73
2023/03/13 04:32:20;;;;;;;25.33;5.45;;;8.40;99.90;;;;;;2079889;28;20146;-71
2023/03/13 04:33:35;;;;;;;18.27;4.30;;;8.40;99.90;;;;;;2087879;28;20132;-73
2023/03/13 04:35:08;;;;;;;16.85;4.70;;;8.40;99.90;;;;;;2060518;28;20030;-72
2023/03/13 04:36:16;;;;;;;21.25;4.38;;;8.30;99.90;;;;;;2080345;28;20273;-72
2023/03/13 04:37:25;;;;;;;15.68;4.22;;;8.30;99.90;;;;;;2080326;28;20037;-72
2023/03/13 04:38:39;;;;;;;20.15;4.65;;;8.40;99.90;;;;;;2077927;28;20512;-72
2023/03/13 04:40:00;;;;;;;20.80;4.28;;;8.40;99.90;;;;;;2081442;28;20585;-72
2023/03/13 04:41:17;;;;;;;17.60;4.20;;;8.40;99.90;;;;;;2089958;28;20646;-72
2023/03/13 04:42:26;;;;;;;17.60;4.10;;;8.30;99.90;;;;;;2090285;28;20036;-72
2023/03/13 04:43:56;;;;;;;;;;;8.30;99.90;;;;;;2090297;28;20422;-72
2023/03/13 04:45:36;;;;;;;18.20;4.40;;;8.30;99.90;;;;;;2078314;28;20403;-72
2023/03/13 04:46:56;;;;;;;;;;;8.30;99.90;;;;;;2086222;28;20036;-72
2023/03/13 04:48:09;;;;;;;15.93;4.05;;;8.30;99.90;;;;;;2089752;28;19916;-72
2023/03/13 04:49:49;;;;;;;17.00;4.30;;;8.20;99.90;;;;;;2067748;28;20171;-72
2023/03/13 04:51:09;;;;;;;;;;;8.20;99.90;;;;;;2086210;28;20036;-72
2023/03/13 04:52:21;;;;;;;;;;;8.20;99.90;;;;;;2090484;28;19916;-73
2023/03/13 04:53:42;;;;;;;21.15;4.28;;;8.30;99.90;;;;;;2087598;28;19919;-73
2023/03/13 04:54:54;;;;;;;21.95;4.75;;;8.30;99.90;;;;;;2088922;28;20028;-72
2023/03/13 04:56:11;;;;;;;21.05;4.43;;;8.30;99.90;;;;;;2085995;28;20036;-73
2023/03/13 04:57:28;;;;;;;23.00;4.68;;;8.40;99.90;;;;;;2086780;28;20029;-71
2023/03/13 04:58:50;;;;;;;19.23;4.28;;;8.40;99.90;;;;;;2090052;28;20483;-74
2023/03/13 05:00:10;;;;;;;18.63;4.03;;;8.50;99.90;;;;;;2084181;28;20024;-73
2023/03/13 05:01:20;;;;;;;17.38;4.15;;;8.50;99.90;;;;;;2075624;28;20025;-74
2023/03/13 05:02:43;;;;;;;20.95;4.35;;;8.50;99.90;;;;;;2068562;28;20536;-74
2023/03/13 05:03:56;;;;;;;15.90;3.78;;;8.50;99.90;;;;;;2085617;28;20039;-73
2023/03/13 05:05:20;;;;;;;18.83;4.38;;;8.50;99.90;;;;;;2090293;28;20115;-73
2023/03/13 05:06:52;;;;;;;18.17;4.50;;;8.60;99.90;;;;;;2071770;28;20602;-84
2023/03/13 05:08:09;;;;;;;20.40;4.60;;;8.60;99.90;;;;;;2088720;28;20414;-86
2023/03/13 05:09:23;;;;;;;17.20;4.00;;;8.60;99.90;;;;;;2089798;28;20029;-88
2023/03/13 05:10:32;;;;;;;17.75;4.63;;;8.60;99.90;;;;;;2082377;28;20044;-84
2023/03/13 05:11:44;;;;;;;18.35;4.38;;;8.60;99.90;;;;;;2089646;28;20271;-85
2023/03/13 05:12:58;;;;;;;19.17;4.70;;;8.60;99.90;;;;;;2082503;28;20120;-86
2023/03/13 05:14:23;;;;;;;17.65;4.00;;;8.60;99.90;;;;;;2074487;28;20036;-83
2023/03/13 05:15:44;;;;;;;;;;;8.60;99.90;;;;;;2088642;28;20037;-85
2023/03/13 05:17:09;;;;;;;21.02;4.70;;;8.70;99.90;;;;;;2076948;28;20446;-74
2023/03/13 05:18:30;;;;;;;18.88;4.25;;;8.70;99.90;;;;;;2070088;28;20091;-72
2023/03/13 05:19:53;;;;;;;18.25;4.20;;;8.70;99.90;;;;;;2083960;28;20495;-74
2023/03/13 05:21:17;;;;;;;20.27;4.72;;;8.70;99.90;;;;;;2067303;28;20041;-73
2023/03/13 05:22:38;;;;;;;16.65;4.07;;;8.70;99.90;;;;;;2077169;28;20381;-74
2023/03/13 05:24:06;;;;;;;18.63;4.22;;;8.70;99.90;;;;;;2082851;28;20024;-73
2023/03/13 05:25:20;;;;;;;19.35;4.25;;;8.70;99.90;;;;;;2078887;28;20608;-74
2023/03/13 05:26:46;;;;;;;21.48;4.03;;;8.70;99.90;;;;;;2083640;28;20136;-74
2023/03/13 05:27:59;;;;;;;22.27;4.55;;;8.70;99.90;;;;;;2081919;28;20021;-74
2023/03/13 05:29:29;;;;;;;20.15;4.40;;;8.70;99.90;;;;;;2070126;28;20057;-73
2023/03/13 05:30:54;;;;;;;13.93;3.97;;;8.80;99.90;;;;;;2083682;28;20032;-74
2023/03/13 05:32:27;;;;;;;20.13;4.78;;;8.70;99.90;;;;;;2083755;28;20021;-72
2023/03/13 05:33:38;;;;;;;26.52;5.82;;;8.70;99.90;;;;;;2080597;28;20036;-72
2023/03/13 05:35:08;;;;;;;23.90;6.30;;;8.70;99.90;;;;;;2076214;28;20043;-72
2023/03/13 05:36:18;;;;;;;;;;;8.70;99.90;;;;;;2090297;28;20024;-72
2023/03/13 05:37:37;;;;;;;21.52;4.78;;;8.70;99.90;;;;;;2083877;28;19991;-72
2023/03/13 05:38:58;;;;;;;24.23;5.07;;;8.80;99.90;;;;;;2089739;28;20259;-72
2023/03/13 05:40:17;;;;;;;26.23;5.43;;;8.80;99.90;;;;;;2090590;28;20055;-72
2023/03/13 05:41:36;;;;;;;20.45;5.53;;;8.90;99.90;;;;;;2082436;28;20547;-72
2023/03/13 05:43:00;;;;;;;19.33;5.38;;;8.90;99.90;;;;;;2088629;28;20565;-77
2023/03/13 05:44:21;;;;;;;21.98;5.60;;;8.90;99.90;;;;;;2072263;28;20041;-82